sensor_id;sensor_type;location;lat;lon;timestamp;pressure;altitude;pressure_sealevel;temperature;humidity
13581;BME280;6861;46.170;7.222;2022-07-19T00:00:00;96260.38;;;30.37;27.40
13581;BME280;6861;46.170;7.222;2022-07-19T00:02:29;96259.63;;;30.33;27.52
13581;BME280;6861;46.170;7.222;2022-07-19T00:04:56;96258.84;;;30.29;27.78
13581;BME280;6861;46.170;7.222;2022-07-19T00:07:23;96262.31;;;30.26;27.55
13581;BME280;6861;46.170;7.222;2022-07-19T00:09:52;96266.16;;;30.21;27.67
13581;BME280;6861;46.170;7.222;2022-07-19T00:12:18;96258.06;;;30.18;27.84
13581;BME280;6861;46.170;7.222;2022-07-19T00:14:45;96254.22;;;30.12;28.09
13581;BME280;6861;46.170;7.222;2022-07-19T00:17:13;96254.97;;;30.02;27.68
13581;BME280;6861;46.170;7.222;2022-07-19T00:19:40;96263.41;;;29.89;28.19
13581;BME280;6861;46.170;7.222;2022-07-19T00:22:07;96253.34;;;29.72;28.17
13581;BME280;6861;46.170;7.222;2022-07-19T00:24:34;96255.63;;;29.63;28.21
13581;BME280;6861;46.170;7.222;2022-07-19T00:27:02;96256.34;;;29.53;28.30
13581;BME280;6861;46.170;7.222;2022-07-19T00:29:29;96255.19;;;29.47;28.51
13581;BME280;6861;46.170;7.222;2022-07-19T00:31:56;96247.06;;;29.40;28.63
13581;BME280;6861;46.170;7.222;2022-07-19T00:34:23;96259.38;;;29.41;28.48
13581;BME280;6861;46.170;7.222;2022-07-19T00:36:50;96257.13;;;29.43;28.56
13581;BME280;6861;46.170;7.222;2022-07-19T00:39:17;96262.91;;;29.45;29.10
13581;BME280;6861;46.170;7.222;2022-07-19T00:41:44;96264.81;;;29.48;28.80
13581;BME280;6861;46.170;7.222;2022-07-19T00:44:13;96261.34;;;29.51;29.19
13581;BME280;6861;46.170;7.222;2022-07-19T00:46:40;96272.53;;;29.53;29.04
13581;BME280;6861;46.170;7.222;2022-07-19T00:49:07;96268.28;;;29.52;28.88
13581;BME280;6861;46.170;7.222;2022-07-19T00:51:35;96267.91;;;29.50;28.94
13581;BME280;6861;46.170;7.222;2022-07-19T00:54:06;96262.47;;;29.39;29.37
13581;BME280;6861;46.170;7.222;2022-07-19T00:56:34;96260.88;;;29.31;28.80
13581;BME280;6861;46.170;7.222;2022-07-19T00:59:03;96266.66;;;29.26;28.93
13581;BME280;6861;46.170;7.222;2022-07-19T01:01:32;96261.63;;;29.24;29.27
13581;BME280;6861;46.170;7.222;2022-07-19T01:03:59;96267.78;;;29.21;29.24
13581;BME280;6861;46.170;7.222;2022-07-19T01:06:26;96270.84;;;29.16;29.02
13581;BME280;6861;46.170;7.222;2022-07-19T01:08:53;96266.94;;;29.10;28.84
13581;BME280;6861;46.170;7.222;2022-07-19T01:11:20;96263.09;;;29.08;28.91
13581;BME280;6861;46.170;7.222;2022-07-19T01:13:48;96270.78;;;29.06;29.03
13581;BME280;6861;46.170;7.222;2022-07-19T01:16:15;96258.44;;;29.01;29.66
13581;BME280;6861;46.170;7.222;2022-07-19T01:18:44;96265.72;;;28.97;29.33
13581;BME280;6861;46.170;7.222;2022-07-19T01:21:19;96276.06;;;28.91;29.48
13581;BME280;6861;46.170;7.222;2022-07-19T01:23:47;96266.75;;;28.82;29.57
13581;BME280;6861;46.170;7.222;2022-07-19T01:26:14;96273.63;;;28.76;29.47
13581;BME280;6861;46.170;7.222;2022-07-19T01:28:42;96269.78;;;28.73;29.68
13581;BME280;6861;46.170;7.222;2022-07-19T01:31:09;96277.47;;;28.75;29.59
13581;BME280;6861;46.170;7.222;2022-07-19T01:33:40;96275.59;;;28.79;30.50
13581;BME280;6861;46.170;7.222;2022-07-19T01:36:07;96282.91;;;28.82;30.16
13581;BME280;6861;46.170;7.222;2022-07-19T01:38:37;96277.53;;;28.82;30.52
13581;BME280;6861;46.170;7.222;2022-07-19T01:41:04;96280.19;;;28.78;30.58
13581;BME280;6861;46.170;7.222;2022-07-19T01:43:31;96277.44;;;28.71;30.03
13581;BME280;6861;46.170;7.222;2022-07-19T01:45:58;96279.72;;;28.65;30.51
13581;BME280;6861;46.170;7.222;2022-07-19T01:48:25;96285.06;;;28.62;30.66
13581;BME280;6861;46.170;7.222;2022-07-19T01:50:52;96282.34;;;28.55;30.94
13581;BME280;6861;46.170;7.222;2022-07-19T01:53:19;96284.25;;;28.51;30.40
13581;BME280;6861;46.170;7.222;2022-07-19T01:55:47;96286.13;;;28.43;31.05
13581;BME280;6861;46.170;7.222;2022-07-19T01:58:14;96287.97;;;28.35;31.30
13581;BME280;6861;46.170;7.222;2022-07-19T02:00:41;96281.00;;;28.31;31.03
13581;BME280;6861;46.170;7.222;2022-07-19T02:03:08;96281.00;;;28.31;31.22
13581;BME280;6861;46.170;7.222;2022-07-19T02:05:35;96285.25;;;28.32;31.02
13581;BME280;6861;46.170;7.222;2022-07-19T02:08:02;96284.84;;;28.30;31.45
13581;BME280;6861;46.170;7.222;2022-07-19T02:10:31;96289.41;;;28.26;31.74
13581;BME280;6861;46.170;7.222;2022-07-19T02:12:59;96290.16;;;28.23;31.56
13581;BME280;6861;46.170;7.222;2022-07-19T02:15:26;96284.78;;;28.23;31.57
13581;BME280;6861;46.170;7.222;2022-07-19T02:17:53;96286.31;;;28.24;31.36
13581;BME280;6861;46.170;7.222;2022-07-19T02:20:21;96280.88;;;28.20;31.31
13581;BME280;6861;46.170;7.222;2022-07-19T02:22:49;96277.00;;;28.18;31.37
13581;BME280;6861;46.170;7.222;2022-07-19T02:25:16;96290.03;;;28.12;31.94
13581;BME280;6861;46.170;7.222;2022-07-19T02:27:43;96290.78;;;28.09;31.66
13581;BME280;6861;46.170;7.222;2022-07-19T02:30:13;96280.78;;;28.10;31.76
13581;BME280;6861;46.170;7.222;2022-07-19T02:32:40;96287.72;;;28.11;31.41
13581;BME280;6861;46.170;7.222;2022-07-19T02:35:08;96286.97;;;28.14;31.62
13581;BME280;6861;46.170;7.222;2022-07-19T02:37:36;96282.34;;;28.11;31.86
13581;BME280;6861;46.170;7.222;2022-07-19T02:40:04;96273.81;;;28.05;31.72
13581;BME280;6861;46.170;7.222;2022-07-19T02:42:31;96284.13;;;27.99;32.05
13581;BME280;6861;46.170;7.222;2022-07-19T02:44:58;96286.00;;;27.92;31.75
13581;BME280;6861;46.170;7.222;2022-07-19T02:47:26;96285.19;;;27.88;31.78
13581;BME280;6861;46.170;7.222;2022-07-19T02:49:53;96287.47;;;27.86;31.82
13581;BME280;6861;46.170;7.222;2022-07-19T02:52:20;96292.06;;;27.85;31.15
13581;BME280;6861;46.170;7.222;2022-07-19T02:54:47;96289.28;;;27.78;31.54
13581;BME280;6861;46.170;7.222;2022-07-19T02:57:14;96284.28;;;27.73;31.38
13581;BME280;6861;46.170;7.222;2022-07-19T02:59:41;96296.19;;;27.72;31.66
13581;BME280;6861;46.170;7.222;2022-07-19T03:02:08;96296.53;;;27.70;31.61
13581;BME280;6861;46.170;7.222;2022-07-19T03:04:36;96300.28;;;27.62;31.54
13581;BME280;6861;46.170;7.222;2022-07-19T03:07:03;96305.09;;;27.50;32.11
13581;BME280;6861;46.170;7.222;2022-07-19T03:09:30;96306.16;;;27.41;31.70
13581;BME280;6861;46.170;7.222;2022-07-19T03:11:57;96309.97;;;27.40;32.03
13581;BME280;6861;46.170;7.222;2022-07-19T03:14:24;96304.59;;;27.40;31.92
13581;BME280;6861;46.170;7.222;2022-07-19T03:16:53;96310.78;;;27.45;32.41
13581;BME280;6861;46.170;7.222;2022-07-19T03:19:20;96312.34;;;27.46;32.27
13581;BME280;6861;46.170;7.222;2022-07-19T03:21:48;96300.81;;;27.45;31.79
13581;BME280;6861;46.170;7.222;2022-07-19T03:24:15;96309.25;;;27.43;31.85
13581;BME280;6861;46.170;7.222;2022-07-19T03:26:42;96308.06;;;27.41;32.34
13581;BME280;6861;46.170;7.222;2022-07-19T03:29:09;96312.25;;;27.38;32.51
13581;BME280;6861;46.170;7.222;2022-07-19T03:31:37;96307.66;;;27.39;32.13
13581;BME280;6861;46.170;7.222;2022-07-19T03:34:04;96313.81;;;27.39;31.94
13581;BME280;6861;46.170;7.222;2022-07-19T03:36:31;96313.81;;;27.39;32.33
13581;BME280;6861;46.170;7.222;2022-07-19T03:39:00;96305.31;;;27.37;32.25
13581;BME280;6861;46.170;7.222;2022-07-19T03:41:27;96309.47;;;27.31;32.32
13581;BME280;6861;46.170;7.222;2022-07-19T03:43:54;96313.63;;;27.25;31.88
13581;BME280;6861;46.170;7.222;2022-07-19T03:46:21;96318.16;;;27.21;32.09
13581;BME280;6861;46.170;7.222;2022-07-19T03:48:48;96315.06;;;27.19;32.00
13581;BME280;6861;46.170;7.222;2022-07-19T03:51:15;96324.25;;;27.18;32.03
13581;BME280;6861;46.170;7.222;2022-07-19T03:53:42;96318.84;;;27.15;32.66
13581;BME280;6861;46.170;7.222;2022-07-19T03:56:10;96327.25;;;27.13;32.49
13581;BME280;6861;46.170;7.222;2022-07-19T03:58:37;96330.31;;;27.12;32.47
13581;BME280;6861;46.170;7.222;2022-07-19T04:01:04;96322.63;;;27.10;32.60
13581;BME280;6861;46.170;7.222;2022-07-19T04:03:35;96327.16;;;27.06;32.60
13581;BME280;6861;46.170;7.222;2022-07-19T04:06:03;96338.63;;;27.03;32.74
13581;BME280;6861;46.170;7.222;2022-07-19T04:08:30;96327.84;;;26.99;33.01
13581;BME280;6861;46.170;7.222;2022-07-19T04:10:57;96329.75;;;26.99;32.97
13581;BME280;6861;46.170;7.222;2022-07-19T04:13:26;96333.56;;;26.98;32.52
13581;BME280;6861;46.170;7.222;2022-07-19T04:15:53;96330.03;;;26.94;32.90
13581;BME280;6861;46.170;7.222;2022-07-19T04:18:20;96340.00;;;26.93;32.42
13581;BME280;6861;46.170;7.222;2022-07-19T04:20:47;96336.53;;;26.93;32.54
13581;BME280;6861;46.170;7.222;2022-07-19T04:23:14;96342.63;;;26.90;32.65
13581;BME280;6861;46.170;7.222;2022-07-19T04:25:41;96342.97;;;26.85;32.76
13581;BME280;6861;46.170;7.222;2022-07-19T04:28:08;96341.28;;;26.76;33.48
13581;BME280;6861;46.170;7.222;2022-07-19T04:30:37;96346.66;;;26.76;32.73
13581;BME280;6861;46.170;7.222;2022-07-19T04:33:04;96350.47;;;26.75;33.15
13581;BME280;6861;46.170;7.222;2022-07-19T04:35:31;96357.34;;;26.73;32.94
13581;BME280;6861;46.170;7.222;2022-07-19T04:37:58;96357.28;;;26.69;33.18
13581;BME280;6861;46.170;7.222;2022-07-19T04:40:25;96354.50;;;26.62;33.69
13581;BME280;6861;46.170;7.222;2022-07-19T04:42:52;96358.59;;;26.56;33.35
13581;BME280;6861;46.170;7.222;2022-07-19T04:45:18;96354.00;;;26.57;33.62
13581;BME280;6861;46.170;7.222;2022-07-19T04:47:47;96353.28;;;26.60;33.85
13581;BME280;6861;46.170;7.222;2022-07-19T04:50:14;96357.94;;;26.63;34.23
13581;BME280;6861;46.170;7.222;2022-07-19T04:52:41;96356.03;;;26.63;34.24
13581;BME280;6861;46.170;7.222;2022-07-19T04:55:08;96356.03;;;26.63;34.10
13581;BME280;6861;46.170;7.222;2022-07-19T04:57:35;96355.69;;;26.65;34.05
13581;BME280;6861;46.170;7.222;2022-07-19T05:00:03;96359.50;;;26.64;33.80
13581;BME280;6861;46.170;7.222;2022-07-19T05:02:30;96363.97;;;26.56;33.83
13581;BME280;6861;46.170;7.222;2022-07-19T05:04:59;96368.50;;;26.52;33.95
13581;BME280;6861;46.170;7.222;2022-07-19T05:07:26;96371.97;;;26.53;33.85
13581;BME280;6861;46.170;7.222;2022-07-19T05:09:53;96367.38;;;26.53;33.82
13581;BME280;6861;46.170;7.222;2022-07-19T05:12:20;96365.81;;;26.52;33.33
13581;BME280;6861;46.170;7.222;2022-07-19T05:14:47;96362.31;;;26.48;34.14
13581;BME280;6861;46.170;7.222;2022-07-19T05:17:14;96373.75;;;26.45;33.58
13581;BME280;6861;46.170;7.222;2022-07-19T05:19:41;96370.28;;;26.44;33.95
13581;BME280;6861;46.170;7.222;2022-07-19T05:22:10;96378.69;;;26.43;34.02
13581;BME280;6861;46.170;7.222;2022-07-19T05:24:37;96381.94;;;26.52;34.48
13581;BME280;6861;46.170;7.222;2022-07-19T05:27:04;96376.56;;;26.52;34.04
13581;BME280;6861;46.170;7.222;2022-07-19T05:29:31;96375.50;;;26.57;34.06
13581;BME280;6861;46.170;7.222;2022-07-19T05:31:58;96373.69;;;26.64;33.73
13581;BME280;6861;46.170;7.222;2022-07-19T05:34:24;96370.41;;;26.74;34.22
13581;BME280;6861;46.170;7.222;2022-07-19T05:36:51;96367.94;;;26.89;33.97
13581;BME280;6861;46.170;7.222;2022-07-19T05:39:20;96363.94;;;27.02;33.87
13581;BME280;6861;46.170;7.222;2022-07-19T05:41:47;96367.25;;;27.18;33.29
13581;BME280;6861;46.170;7.222;2022-07-19T05:44:13;96371.28;;;27.31;33.71
13581;BME280;6861;46.170;7.222;2022-07-19T05:46:41;96359.19;;;27.45;33.31
13581;BME280;6861;46.170;7.222;2022-07-19T05:49:08;96360.94;;;27.60;33.39
13581;BME280;6861;46.170;7.222;2022-07-19T05:51:35;96367.28;;;27.78;33.06
13581;BME280;6861;46.170;7.222;2022-07-19T05:54:03;96356.34;;;27.94;33.06
13581;BME280;6861;46.170;7.222;2022-07-19T05:56:32;96356.13;;;28.10;32.74
13581;BME280;6861;46.170;7.222;2022-07-19T05:58:59;96359.41;;;28.26;32.98
13581;BME280;6861;46.170;7.222;2022-07-19T06:01:27;96362.22;;;28.40;32.96
13581;BME280;6861;46.170;7.222;2022-07-19T06:03:55;96362.78;;;28.56;32.13
13581;BME280;6861;46.170;7.222;2022-07-19T06:06:24;96366.31;;;28.67;31.90
13581;BME280;6861;46.170;7.222;2022-07-19T06:08:51;96361.41;;;28.80;31.94
13581;BME280;6861;46.170;7.222;2022-07-19T06:11:19;96370.00;;;28.93;31.15
13581;BME280;6861;46.170;7.222;2022-07-19T06:13:48;96357.38;;;29.04;31.28
13581;BME280;6861;46.170;7.222;2022-07-19T06:16:15;96361.69;;;29.16;31.20
13581;BME280;6861;46.170;7.222;2022-07-19T06:18:42;96366.38;;;29.26;31.42
13581;BME280;6861;46.170;7.222;2022-07-19T06:21:11;96367.25;;;29.41;31.32
13581;BME280;6861;46.170;7.222;2022-07-19T06:23:39;96371.56;;;29.56;31.30
13581;BME280;6861;46.170;7.222;2022-07-19T06:26:07;96372.38;;;29.67;31.19
13581;BME280;6861;46.170;7.222;2022-07-19T06:28:34;96363.97;;;29.79;30.97
13581;BME280;6861;46.170;7.222;2022-07-19T06:31:04;96363.25;;;29.93;30.97
13581;BME280;6861;46.170;7.222;2022-07-19T06:33:31;96372.19;;;30.08;30.61
13581;BME280;6861;46.170;7.222;2022-07-19T06:35:58;96359.13;;;30.20;30.61
13581;BME280;6861;46.170;7.222;2022-07-19T06:38:24;96363.38;;;30.32;30.60
13581;BME280;6861;46.170;7.222;2022-07-19T06:40:51;96364.16;;;30.43;30.25
13581;BME280;6861;46.170;7.222;2022-07-19T06:43:18;96358.38;;;30.55;30.49
13581;BME280;6861;46.170;7.222;2022-07-19T06:45:46;96364.59;;;30.67;30.49
13581;BME280;6861;46.170;7.222;2022-07-19T06:48:14;96361.50;;;30.79;30.04
13581;BME280;6861;46.170;7.222;2022-07-19T06:50:41;96365.38;;;30.92;30.19
13581;BME280;6861;46.170;7.222;2022-07-19T06:53:08;96350.28;;;31.05;30.30
13581;BME280;6861;46.170;7.222;2022-07-19T06:55:36;96356.09;;;31.18;30.28
13581;BME280;6861;46.170;7.222;2022-07-19T06:58:03;96353.72;;;31.30;30.15
13581;BME280;6861;46.170;7.222;2022-07-19T07:00:30;96352.94;;;31.44;29.72
13581;BME280;6861;46.170;7.222;2022-07-19T07:02:57;96353.28;;;31.57;29.11
13581;BME280;6861;46.170;7.222;2022-07-19T07:05:25;96352.88;;;31.69;29.23
13581;BME280;6861;46.170;7.222;2022-07-19T07:07:52;96340.47;;;31.82;29.54
13581;BME280;6861;46.170;7.222;2022-07-19T07:10:19;96340.38;;;31.97;29.03
13581;BME280;6861;46.170;7.222;2022-07-19T07:12:46;96334.88;;;32.11;28.31
13581;BME280;6861;46.170;7.222;2022-07-19T07:15:15;96332.88;;;32.25;28.01
13581;BME280;6861;46.170;7.222;2022-07-19T07:17:42;96338.59;;;32.38;28.20
13581;BME280;6861;46.170;7.222;2022-07-19T07:20:11;96323.03;;;32.49;28.19
13581;BME280;6861;46.170;7.222;2022-07-19T07:22:39;96324.53;;;32.57;27.75
13581;BME280;6861;46.170;7.222;2022-07-19T07:25:07;96327.53;;;32.70;27.89
13581;BME280;6861;46.170;7.222;2022-07-19T07:27:34;96330.19;;;32.81;26.95
13581;BME280;6861;46.170;7.222;2022-07-19T07:30:03;96317.28;;;32.92;27.15
13581;BME280;6861;46.170;7.222;2022-07-19T07:32:30;96318.72;;;33.04;26.95
13581;BME280;6861;46.170;7.222;2022-07-19T07:34:57;96321.31;;;33.14;26.77
13581;BME280;6861;46.170;7.222;2022-07-19T07:37:25;96317.31;;;33.26;26.61
13581;BME280;6861;46.170;7.222;2022-07-19T07:39:54;96316.84;;;33.38;26.44
13581;BME280;6861;46.170;7.222;2022-07-19T07:42:21;96308.94;;;33.51;25.99
13581;BME280;6861;46.170;7.222;2022-07-19T07:44:50;96306.88;;;33.62;26.35
13581;BME280;6861;46.170;7.222;2022-07-19T07:47:18;96308.69;;;33.72;26.01
13581;BME280;6861;46.170;7.222;2022-07-19T07:49:45;96305.06;;;33.82;25.55
13581;BME280;6861;46.170;7.222;2022-07-19T07:52:12;96301.44;;;33.93;25.78
13581;BME280;6861;46.170;7.222;2022-07-19T07:54:39;96300.50;;;34.03;25.63
13581;BME280;6861;46.170;7.222;2022-07-19T07:57:07;96294.97;;;34.10;25.25
13581;BME280;6861;46.170;7.222;2022-07-19T07:59:35;96294.88;;;34.17;25.66
13581;BME280;6861;46.170;7.222;2022-07-19T08:02:02;96287.81;;;34.23;25.26
13581;BME280;6861;46.170;7.222;2022-07-19T08:04:29;96289.25;;;34.31;25.21
13581;BME280;6861;46.170;7.222;2022-07-19T08:06:56;96279.81;;;34.39;25.13
13581;BME280;6861;46.170;7.222;2022-07-19T08:09:23;96279.72;;;34.46;24.81
13581;BME280;6861;46.170;7.222;2022-07-19T08:11:50;96281.13;;;34.55;24.64
13581;BME280;6861;46.170;7.222;2022-07-19T08:14:19;96271.69;;;34.63;24.60
13581;BME280;6861;46.170;7.222;2022-07-19T08:16:46;96270.75;;;34.69;24.64
13581;BME280;6861;46.170;7.222;2022-07-19T08:19:13;96274.47;;;34.79;24.16
13581;BME280;6861;46.170;7.222;2022-07-19T08:21:40;96254.56;;;34.86;24.18
13581;BME280;6861;46.170;7.222;2022-07-19T08:24:07;96261.00;;;34.95;23.84
13581;BME280;6861;46.170;7.222;2022-07-19T08:26:33;96253.06;;;35.04;23.67
13581;BME280;6861;46.170;7.222;2022-07-19T08:29:00;96253.69;;;35.12;24.14
13581;BME280;6861;46.170;7.222;2022-07-19T08:31:29;96248.88;;;35.20;23.56
13581;BME280;6861;46.170;7.222;2022-07-19T08:33:56;96248.41;;;35.25;23.44
13581;BME280;6861;46.170;7.222;2022-07-19T08:36:23;96244.38;;;35.33;23.29
13581;BME280;6861;46.170;7.222;2022-07-19T08:38:49;96240.31;;;35.41;23.21
13581;BME280;6861;46.170;7.222;2022-07-19T08:41:17;96236.28;;;35.49;23.35
13581;BME280;6861;46.170;7.222;2022-07-19T08:43:44;96235.25;;;35.59;23.35
13581;BME280;6861;46.170;7.222;2022-07-19T08:46:11;96231.53;;;35.69;23.71
13581;BME280;6861;46.170;7.222;2022-07-19T08:48:40;96218.47;;;35.80;24.11
13581;BME280;6861;46.170;7.222;2022-07-19T08:51:07;96222.50;;;35.92;23.93
13581;BME280;6861;46.170;7.222;2022-07-19T08:53:35;96216.78;;;36.03;24.02
13581;BME280;6861;46.170;7.222;2022-07-19T08:56:06;96214.59;;;36.14;23.91
13581;BME280;6861;46.170;7.222;2022-07-19T08:58:47;96217.81;;;36.25;23.75
13581;BME280;6861;46.170;7.222;2022-07-19T09:01:14;96215.28;;;36.34;23.91
13581;BME280;6861;46.170;7.222;2022-07-19T09:04:07;96200.25;;;36.42;23.29
13581;BME280;6861;46.170;7.222;2022-07-19T09:06:40;96207.06;;;36.51;23.30
13581;BME280;6861;46.170;7.222;2022-07-19T09:09:07;96204.50;;;36.60;23.54
13581;BME280;6861;46.170;7.222;2022-07-19T09:11:35;96200.38;;;36.68;23.11
13581;BME280;6861;46.170;7.222;2022-07-19T09:14:08;96198.16;;;36.79;22.93
13581;BME280;6861;46.170;7.222;2022-07-19T09:16:49;96190.47;;;36.90;22.51
13581;BME280;6861;46.170;7.222;2022-07-19T09:19:18;96187.09;;;36.99;22.82
13581;BME280;6861;46.170;7.222;2022-07-19T09:21:54;96180.69;;;37.05;22.86
13581;BME280;6861;46.170;7.222;2022-07-19T09:24:21;96182.00;;;37.14;23.04
13581;BME280;6861;46.170;7.222;2022-07-19T09:27:02;96177.56;;;37.20;23.00
13581;BME280;6861;46.170;7.222;2022-07-19T09:29:30;96170.69;;;37.28;22.65
13581;BME280;6861;46.170;7.222;2022-07-19T09:32:06;96163.91;;;37.32;22.73
13581;BME280;6861;46.170;7.222;2022-07-19T09:34:36;96157.16;;;37.37;22.88
13581;BME280;6861;46.170;7.222;2022-07-19T09:39:55;96161.53;;;37.47;22.80
13581;BME280;6861;46.170;7.222;2022-07-19T09:42:24;96154.31;;;37.53;22.68
13581;BME280;6861;46.170;7.222;2022-07-19T09:44:58;96151.06;;;37.58;22.75
13581;BME280;6861;46.170;7.222;2022-07-19T09:47:36;96144.59;;;37.65;22.76
13581;BME280;6861;46.170;7.222;2022-07-19T09:50:06;96143.31;;;37.69;23.08
13581;BME280;6861;46.170;7.222;2022-07-19T09:52:34;96144.31;;;37.76;23.45
13581;BME280;6861;46.170;7.222;2022-07-19T09:55:04;96135.56;;;37.81;23.26
13581;BME280;6861;46.170;7.222;2022-07-19T09:57:34;96140.78;;;37.88;23.60
13581;BME280;6861;46.170;7.222;2022-07-19T10:00:04;96130.50;;;37.92;23.55
13581;BME280;6861;46.170;7.222;2022-07-19T10:02:35;96124.81;;;37.99;23.80
13581;BME280;6861;46.170;7.222;2022-07-19T10:05:05;96121.84;;;38.06;23.52
13581;BME280;6861;46.170;7.222;2022-07-19T10:07:34;96114.63;;;38.12;23.45
13581;BME280;6861;46.170;7.222;2022-07-19T10:10:03;96112.53;;;38.16;23.32
13581;BME280;6861;46.170;7.222;2022-07-19T10:12:30;96115.47;;;38.22;23.42
13581;BME280;6861;46.170;7.222;2022-07-19T10:15:01;96105.16;;;38.26;23.06
13581;BME280;6861;46.170;7.222;2022-07-19T10:17:32;96099.56;;;38.29;22.99
13581;BME280;6861;46.170;7.222;2022-07-19T10:20:01;96097.16;;;38.31;22.70
13581;BME280;6861;46.170;7.222;2022-07-19T10:22:31;96097.81;;;38.35;22.72
13581;BME280;6861;46.170;7.222;2022-07-19T10:25:06;96086.75;;;38.39;22.76
13581;BME280;6861;46.170;7.222;2022-07-19T10:27:39;96086.63;;;38.43;22.83
13581;BME280;6861;46.170;7.222;2022-07-19T10:30:16;96082.66;;;38.44;22.82
13581;BME280;6861;46.170;7.222;2022-07-19T10:32:44;96074.78;;;38.46;22.92
13581;BME280;6861;46.170;7.222;2022-07-19T10:35:17;96068.44;;;38.49;23.53
13581;BME280;6861;46.170;7.222;2022-07-19T10:37:46;96065.25;;;38.50;23.79
13581;BME280;6861;46.170;7.222;2022-07-19T10:40:40;96071.47;;;38.51;23.64
13581;BME280;6861;46.170;7.222;2022-07-19T10:43:09;96064.50;;;38.50;23.48
13581;BME280;6861;46.170;7.222;2022-07-19T10:45:37;96061.44;;;38.48;23.51
13581;BME280;6861;46.170;7.222;2022-07-19T10:48:11;96063.09;;;38.45;23.62
13581;BME280;6861;46.170;7.222;2022-07-19T10:50:53;96055.00;;;38.42;23.86
13581;BME280;6861;46.170;7.222;2022-07-19T10:56:58;96047.94;;;38.31;23.50
13581;BME280;6861;46.170;7.222;2022-07-19T10:59:33;96040.75;;;38.25;23.45
13581;BME280;6861;46.170;7.222;2022-07-19T11:02:01;96039.03;;;38.18;23.35
13581;BME280;6861;46.170;7.222;2022-07-19T11:04:30;96034.59;;;38.12;23.47
13581;BME280;6861;46.170;7.222;2022-07-19T11:07:25;96034.06;;;38.04;23.42
13581;BME280;6861;46.170;7.222;2022-07-19T11:09:54;96033.09;;;37.98;23.33
13581;BME280;6861;46.170;7.222;2022-07-19T11:12:34;96026.69;;;37.92;23.35
13581;BME280;6861;46.170;7.222;2022-07-19T11:15:05;96024.50;;;37.87;23.51
13581;BME280;6861;46.170;7.222;2022-07-19T11:17:33;96020.38;;;37.82;23.53
13581;BME280;6861;46.170;7.222;2022-07-19T11:20:06;96017.00;;;37.78;23.58
13581;BME280;6861;46.170;7.222;2022-07-19T11:22:39;96007.72;;;37.76;23.67
13581;BME280;6861;46.170;7.222;2022-07-19T11:25:08;96010.13;;;37.73;24.06
13581;BME280;6861;46.170;7.222;2022-07-19T11:27:40;96000.53;;;37.69;24.07
13581;BME280;6861;46.170;7.222;2022-07-19T11:30:08;96001.59;;;37.71;24.00
13581;BME280;6861;46.170;7.222;2022-07-19T11:32:36;95992.78;;;37.67;23.87
13581;BME280;6861;46.170;7.222;2022-07-19T11:35:06;95989.69;;;37.65;23.50
13581;BME280;6861;46.170;7.222;2022-07-19T11:37:35;95990.88;;;37.64;23.56
13581;BME280;6861;46.170;7.222;2022-07-19T11:40:03;95986.31;;;37.61;23.30
13581;BME280;6861;46.170;7.222;2022-07-19T11:42:34;95980.97;;;37.58;23.42
13581;BME280;6861;46.170;7.222;2022-07-19T11:45:14;95981.72;;;37.58;23.66
13581;BME280;6861;46.170;7.222;2022-07-19T11:47:43;95976.28;;;37.58;23.91
13581;BME280;6861;46.170;7.222;2022-07-19T11:50:12;95971.56;;;37.59;23.66
13581;BME280;6861;46.170;7.222;2022-07-19T11:52:48;95969.59;;;37.59;23.32
13581;BME280;6861;46.170;7.222;2022-07-19T11:55:18;95959.88;;;37.58;23.75
13581;BME280;6861;46.170;7.222;2022-07-19T11:57:45;95954.44;;;37.58;23.87
13581;BME280;6861;46.170;7.222;2022-07-19T12:00:14;95955.19;;;37.59;23.98
13581;BME280;6861;46.170;7.222;2022-07-19T12:02:54;95954.75;;;37.60;23.99
13581;BME280;6861;46.170;7.222;2022-07-19T12:05:23;95952.34;;;37.62;23.97
13581;BME280;6861;46.170;7.222;2022-07-19T12:07:52;95944.13;;;37.62;23.62
13581;BME280;6861;46.170;7.222;2022-07-19T12:10:37;95941.84;;;37.61;23.23
13581;BME280;6861;46.170;7.222;2022-07-19T12:13:06;95937.16;;;37.61;23.62
13581;BME280;6861;46.170;7.222;2022-07-19T12:15:59;95933.97;;;37.63;23.54
13581;BME280;6861;46.170;7.222;2022-07-19T12:18:51;95926.56;;;37.63;23.25
13581;BME280;6861;46.170;7.222;2022-07-19T12:21:21;95922.72;;;37.61;23.45
13581;BME280;6861;46.170;7.222;2022-07-19T12:24:17;95911.03;;;37.60;23.53
13581;BME280;6861;46.170;7.222;2022-07-19T12:26:54;95920.88;;;37.58;23.29
13581;BME280;6861;46.170;7.222;2022-07-19T12:29:24;95911.94;;;37.57;23.59
13581;BME280;6861;46.170;7.222;2022-07-19T12:31:55;95913.13;;;37.56;23.96
13581;BME280;6861;46.170;7.222;2022-07-19T12:34:22;95919.38;;;37.57;23.91
13581;BME280;6861;46.170;7.222;2022-07-19T12:36:50;95914.78;;;37.54;23.93
13581;BME280;6861;46.170;7.222;2022-07-19T12:39:19;95904.75;;;37.51;23.90
13581;BME280;6861;46.170;7.222;2022-07-19T12:42:02;95904.00;;;37.50;23.94
13581;BME280;6861;46.170;7.222;2022-07-19T12:44:30;95904.00;;;37.50;24.24
13581;BME280;6861;46.170;7.222;2022-07-19T12:47:00;95898.53;;;37.50;24.01
13581;BME280;6861;46.170;7.222;2022-07-19T12:49:50;95898.97;;;37.49;24.21
13581;BME280;6861;46.170;7.222;2022-07-19T12:52:17;95891.53;;;37.49;24.12
13581;BME280;6861;46.170;7.222;2022-07-19T12:54:44;95881.38;;;37.50;24.14
13581;BME280;6861;46.170;7.222;2022-07-19T12:57:11;95879.72;;;37.52;24.10
13581;BME280;6861;46.170;7.222;2022-07-19T12:59:38;95878.84;;;37.55;24.18
13581;BME280;6861;46.170;7.222;2022-07-19T13:02:08;95864.00;;;37.56;24.21
13581;BME280;6861;46.170;7.222;2022-07-19T13:04:35;95873.25;;;37.59;24.19
13581;BME280;6861;46.170;7.222;2022-07-19T13:07:03;95867.34;;;37.60;23.99
13581;BME280;6861;46.170;7.222;2022-07-19T13:09:30;95866.91;;;37.62;24.24
13581;BME280;6861;46.170;7.222;2022-07-19T13:11:58;95864.50;;;37.64;24.05
13581;BME280;6861;46.170;7.222;2022-07-19T13:14:26;95857.50;;;37.63;24.20
13581;BME280;6861;46.170;7.222;2022-07-19T13:16:52;95854.34;;;37.64;24.23
13581;BME280;6861;46.170;7.222;2022-07-19T13:19:21;95851.59;;;37.64;24.36
13581;BME280;6861;46.170;7.222;2022-07-19T13:21:49;95850.41;;;37.65;24.30
13581;BME280;6861;46.170;7.222;2022-07-19T13:24:16;95849.53;;;37.68;24.38